Time;durP1;ratioP1;P1;durP2;ratioP2;P2;SDS_P1;SDS_P2;PMS_P1;PMS_P2;Temp;Humidity;BMP_temperature;BMP_pressure;BME280_temperature;BME280_humidity;BME280_pressure;Samples;Min_cycle;Max_cycle;Signal;HPM_P1;HPM_P2
2023/04/18 00:00:49;;;;;;;14.20;10.90;;;;;;;-144.85;100.00;61331.59;5016749;28;31916;-79
2023/04/18 00:03:16;;;;;;;18.92;11.15;;;;;;;-144.85;100.00;61331.59;5016045;28;32345;-79
2023/04/18 00:05:46;;;;;;;17.63;10.60;;;;;;;-144.85;100.00;61331.59;5014702;28;32244;-79
2023/04/18 00:08:13;;;;;;;18.45;10.07;;;;;;;-144.85;100.00;61331.59;4998532;28;31454;-79
2023/04/18 00:10:41;;;;;;;15.70;10.20;;;;;;;-144.85;100.00;61331.59;5017804;28;31175;-79
2023/04/18 00:13:08;;;;;;;13.23;9.40;;;;;;;-144.85;100.00;61331.59;5020798;28;33024;-79
2023/04/18 00:15:36;;;;;;;15.13;9.43;;;;;;;-144.85;100.00;61331.59;5018403;28;31825;-79
2023/04/18 00:18:04;;;;;;;15.52;9.65;;;;;;;-144.85;100.00;61331.59;5016751;28;32004;-79
2023/04/18 00:20:32;;;;;;;14.65;9.02;;;;;;;-144.85;100.00;61331.59;5016657;28;30072;-79
2023/04/18 00:23:00;;;;;;;14.23;9.73;;;;;;;-144.85;100.00;61331.59;5015191;28;31306;-80
2023/04/18 00:25:27;;;;;;;15.32;9.02;;;;;;;-144.85;100.00;61331.59;5031312;28;31996;-79
2023/04/18 00:27:54;;;;;;;14.70;8.85;;;;;;;-144.85;100.00;61331.59;5014718;28;30477;-79
2023/04/18 00:30:23;;;;;;;15.10;9.25;;;;;;;-144.85;100.00;61331.59;5012105;28;31609;-79
2023/04/18 00:32:50;;;;;;;13.35;9.02;;;;;;;-144.85;100.00;61331.59;5025984;28;31212;-79
2023/04/18 00:35:18;;;;;;;13.68;9.38;;;;;;;-144.85;100.00;61331.59;5026339;28;32379;-79
2023/04/18 00:37:45;;;;;;;15.90;9.70;;;;;;;-144.85;100.00;61331.59;5014190;28;32228;-79
2023/04/18 00:40:15;;;;;;;14.82;9.02;;;;;;;-144.85;100.00;61331.59;5013340;28;30668;-79
2023/04/18 00:42:42;;;;;;;14.65;8.65;;;;;;;-144.85;100.00;61331.59;5013225;28;32775;-79
2023/04/18 00:45:10;;;;;;;12.27;8.38;;;;;;;-144.85;100.00;61331.59;5013160;28;32422;-79
2023/04/18 00:47:37;;;;;;;14.00;8.40;;;;;;;-144.85;100.00;61331.59;5014279;28;30491;-79
2023/04/18 00:50:05;;;;;;;14.23;8.65;;;;;;;-144.85;100.00;61331.59;5064402;28;30840;-80
2023/04/18 00:52:34;;;;;;;12.70;8.82;;;;;;;-144.85;100.00;61331.59;5014414;28;31800;-79
2023/04/18 00:55:05;;;;;;;16.50;9.18;;;;;;;-144.85;100.00;61331.59;5029921;28;31343;-79
2023/04/18 00:57:33;;;;;;;15.75;9.45;;;;;;;-144.85;100.00;61331.59;4997843;28;30772;-79
2023/04/18 01:00:01;;;;;;;13.40;9.10;;;;;;;-144.85;100.00;61331.59;5017024;28;31545;-79
2023/04/18 01:02:29;;;;;;;13.25;8.55;;;;;;;-144.85;100.00;61331.59;5047503;28;32048;-79
2023/04/18 01:04:57;;;;;;;13.55;8.30;;;;;;;-144.85;100.00;61331.59;5036915;28;32500;-79
2023/04/18 01:07:25;;;;;;;13.55;8.73;;;;;;;-144.85;100.00;61331.59;5044041;28;33504;-79
2023/04/18 01:09:56;;;;;;;15.18;8.73;;;;;;;-144.85;100.00;61331.59;5013837;28;31726;-79
2023/04/18 01:12:24;;;;;;;13.85;8.52;;;;;;;-144.85;100.00;61331.59;5023743;28;31358;-79
2023/04/18 01:14:53;;;;;;;16.13;8.95;;;;;;;-144.85;100.00;61331.59;5013813;28;31325;-79
2023/04/18 01:17:22;;;;;;;11.45;8.25;;;;;;;-144.85;100.00;61331.59;4997909;28;30383;-79
2023/04/18 01:19:50;;;;;;;16.40;8.98;;;;;;;-144.85;100.00;61331.59;5013804;28;30800;-79
2023/04/18 01:22:18;;;;;;;13.32;8.68;;;;;;;-144.85;100.00;61331.59;5012607;28;31606;-79
2023/04/18 01:24:45;;;;;;;12.27;8.68;;;;;;;-144.85;100.00;61331.59;5013607;28;31453;-79
2023/04/18 01:27:13;;;;;;;15.07;8.52;;;;;;;-144.85;100.00;61331.59;5014139;28;32847;-78
2023/04/18 01:29:40;;;;;;;14.07;8.93;;;;;;;-144.85;100.00;61331.59;5013855;28;30232;-79
2023/04/18 01:32:07;;;;;;;15.63;9.10;;;;;;;-144.85;100.00;61331.59;5015352;28;32452;-79
2023/04/18 01:34:34;;;;;;;12.95;8.50;;;;;;;-144.85;100.00;61331.59;5014263;28;32001;-79
2023/04/18 01:37:05;;;;;;;14.07;8.85;;;;;;;-144.85;100.00;61331.59;5048629;28;31164;-79
2023/04/18 01:39:32;;;;;;;14.70;8.90;;;;;;;-144.85;100.00;61331.59;5031173;28;30424;-79
2023/04/18 01:42:00;;;;;;;14.15;9.20;;;;;;;-144.85;100.00;61331.59;5017423;28;31401;-79
2023/04/18 01:44:28;;;;;;;15.27;8.40;;;;;;;-144.85;100.00;61331.59;5015173;28;31945;-79
2023/04/18 01:46:55;;;;;;;12.30;8.48;;;;;;;-144.85;100.00;61331.59;5018961;28;30269;-79
2023/04/18 01:49:22;;;;;;;18.23;9.32;;;;;;;-144.85;100.00;61331.59;5027708;28;30902;-79
2023/04/18 01:51:50;;;;;;;13.80;8.70;;;;;;;-144.85;100.00;61331.59;5031227;28;32456;-79
2023/04/18 01:54:17;;;;;;;13.70;8.98;;;;;;;-144.85;100.00;61331.59;5027794;28;33607;-79
2023/04/18 01:56:44;;;;;;;14.43;8.88;;;;;;;-144.85;100.00;61331.59;5025938;28;30591;-79
2023/04/18 01:59:11;;;;;;;14.23;9.13;;;;;;;-144.85;100.00;61331.59;5003666;28;30399;-79
2023/04/18 02:01:39;;;;;;;14.60;9.38;;;;;;;-144.85;100.00;61331.59;5013657;28;33787;-79
2023/04/18 02:04:06;;;;;;;12.32;8.90;;;;;;;-144.85;100.00;61331.59;5033550;27;32617;-79
2023/04/18 02:06:33;;;;;;;17.02;8.75;;;;;;;-144.85;100.00;61331.59;5016690;28;30713;-79
2023/04/18 02:09:00;;;;;;;14.95;9.63;;;;;;;-144.85;100.00;61331.59;5030078;28;32152;-79
2023/04/18 02:11:28;;;;;;;15.38;9.13;;;;;;;-144.85;100.00;61331.59;4999418;28;31323;-79
2023/04/18 02:13:58;;;;;;;13.63;8.73;;;;;;;-144.85;100.00;61331.59;5015941;28;30995;-79
2023/04/18 02:16:25;;;;;;;14.55;9.18;;;;;;;-144.85;100.00;61331.59;5032485;28;30724;-79
2023/04/18 02:18:52;;;;;;;12.60;8.85;;;;;;;-144.85;100.00;61331.59;5016561;28;32232;-79
2023/04/18 02:21:20;;;;;;;15.77;9.80;;;;;;;-144.85;100.00;61331.59;5027183;27;31538;-79
2023/04/18 02:23:48;;;;;;;14.75;9.75;;;;;;;-144.85;100.00;61331.59;4999309;28;31104;-79
2023/04/18 02:26:15;;;;;;;15.07;9.95;;;;;;;-144.85;100.00;61331.59;5016071;28;30533;-79
2023/04/18 02:28:42;;;;;;;12.23;8.75;;;;;;;-144.85;100.00;61331.59;5017271;28;32087;-79
2023/04/18 02:31:13;;;;;;;16.10;10.00;;;;;;;-144.85;100.00;61331.59;5017017;28;32595;-79
2023/04/18 02:33:42;;;;;;;13.65;8.95;;;;;;;-144.85;100.00;61331.59;5029763;27;31139;-79
2023/04/18 02:36:11;;;;;;;15.80;9.55;;;;;;;-144.85;100.00;61331.59;5027005;28;30957;-79
2023/04/18 02:38:38;;;;;;;15.60;9.55;;;;;;;-144.85;100.00;61331.59;5016614;28;31342;-79
2023/04/18 02:41:05;;;;;;;15.00;9.73;;;;;;;-144.85;100.00;61331.59;5016266;28;32278;-79
2023/04/18 02:43:32;;;;;;;15.55;10.07;;;;;;;-144.85;100.00;61331.59;5018486;28;31144;-79
2023/04/18 02:46:01;;;;;;;12.73;9.40;;;;;;;-144.85;100.00;61331.59;5027959;28;30913;-79
2023/04/18 02:48:28;;;;;;;15.95;9.48;;;;;;;-144.85;100.00;61331.59;5017081;28;31360;-79
2023/04/18 02:51:02;;;;;;;13.27;9.55;;;;;;;-144.85;100.00;61331.59;5014212;28;31557;-79
2023/04/18 02:53:31;;;;;;;17.38;10.18;;;;;;;-144.85;100.00;61331.59;5015759;28;31084;-79
2023/04/18 02:55:58;;;;;;;14.52;9.43;;;;;;;-144.85;100.00;61331.59;4998803;28;30572;-79
2023/04/18 02:58:36;;;;;;;14.13;9.35;;;;;;;-144.85;100.00;61331.59;5009730;28;30686;-79
2023/04/18 03:01:21;;;;;;;15.93;9.15;;;;;;;-144.85;100.00;61331.59;5013187;28;33315;-79
2023/04/18 03:03:56;;;;;;;14.88;9.60;;;;;;;-144.85;100.00;61331.59;5015149;28;31446;-79
2023/04/18 03:06:34;;;;;;;15.80;9.95;;;;;;;-144.85;100.00;61331.59;5030113;28;30929;-79
2023/04/18 03:09:02;;;;;;;16.70;10.13;;;;;;;-144.85;100.00;61331.59;5018351;28;31636;-79
2023/04/18 03:11:31;;;;;;;18.42;9.90;;;;;;;-144.85;100.00;61331.59;5021495;28;31515;-79
2023/04/18 03:13:59;;;;;;;15.02;9.73;;;;;;;-144.85;100.00;61331.59;5023235;28;31130;-78
2023/04/18 03:16:33;;;;;;;14.80;8.93;;;;;;;-144.85;100.00;61331.59;5027314;28;30663;-78
2023/04/18 03:19:02;;;;;;;13.43;8.90;;;;;;;-144.85;100.00;61331.59;5019404;28;30986;-79
2023/04/18 03:21:30;;;;;;;14.02;9.77;;;;;;;-144.85;100.00;61331.59;5030032;28;31464;-79
2023/04/18 03:23:58;;;;;;;15.48;9.77;;;;;;;-144.85;100.00;61331.59;5015583;28;32591;-79
2023/04/18 03:26:25;;;;;;;14.85;9.88;;;;;;;-144.85;100.00;61331.59;5017407;28;30839;-79
2023/04/18 03:28:54;;;;;;;16.75;10.07;;;;;;;-144.85;100.00;61331.59;5018194;28;32810;-79
2023/04/18 03:31:21;;;;;;;15.85;10.15;;;;;;;-144.85;100.00;61331.59;5014742;28;31536;-79
2023/04/18 03:33:50;;;;;;;13.73;9.45;;;;;;;-144.85;100.00;61331.59;5101618;27;31318;-78
2023/04/18 03:36:24;;;;;;;16.30;9.52;;;;;;;-144.85;100.00;61331.59;5015820;28;30962;-79
2023/04/18 03:38:53;;;;;;;15.43;10.10;;;;;;;-144.85;100.00;61331.59;5015485;28;31572;-79
2023/04/18 03:41:20;;;;;;;15.20;9.68;;;;;;;-144.85;100.00;61331.59;5015252;28;32731;-79
2023/04/18 03:43:48;;;;;;;13.50;9.13;;;;;;;-144.85;100.00;61331.59;5016149;28;31082;-79
2023/04/18 03:46:16;;;;;;;18.13;10.38;;;;;;;-144.85;100.00;61331.59;5012867;28;30966;-79
2023/04/18 03:48:44;;;;;;;15.13;9.60;;;;;;;-144.85;100.00;61331.59;5031249;28;30616;-79
2023/04/18 03:51:13;;;;;;;16.88;9.52;;;;;;;-144.85;100.00;61331.59;5031241;28;31781;-79
2023/04/18 03:53:42;;;;;;;16.15;9.32;;;;;;;-144.85;100.00;61331.59;5015398;28;31092;-79
2023/04/18 03:56:10;;;;;;;14.38;9.27;;;;;;;-144.85;100.00;61331.59;5059410;28;32056;-79
2023/04/18 03:58:46;;;;;;;17.88;9.73;;;;;;;-144.85;100.00;61331.59;5011477;28;30628;-79
2023/04/18 04:01:15;;;;;;;15.02;9.05;;;;;;;-144.85;100.00;61331.59;5017155;28;31437;-79
2023/04/18 04:03:42;;;;;;;14.73;9.75;;;;;;;-144.85;100.00;61331.59;5041192;28;32599;-79
2023/04/18 04:06:10;;;;;;;13.00;8.98;;;;;;;-144.85;100.00;61331.59;5031539;28;31390;-79
2023/04/18 04:08:37;;;;;;;14.55;9.13;;;;;;;-144.85;100.00;61331.59;5021317;28;30883;-79
2023/04/18 04:11:05;;;;;;;17.58;9.93;;;;;;;-144.85;100.00;61331.59;5032190;28;33511;-79
2023/04/18 04:13:32;;;;;;;14.20;8.77;;;;;;;-144.85;100.00;61331.59;5021269;28;30808;-79
2023/04/18 04:15:59;;;;;;;15.18;8.50;;;;;;;-144.85;100.00;61331.59;5015485;28;31361;-80
2023/04/18 04:18:30;;;;;;;14.32;8.85;;;;;;;-144.85;100.00;61331.59;5016021;28;31020;-79
2023/04/18 04:20:59;;;;;;;11.85;7.55;;;;;;;-144.85;100.00;61331.59;5033090;28;32733;-79
2023/04/18 04:23:47;;;;;;;14.27;7.97;;;;;;;-144.85;100.00;61331.59;5011172;28;32006;-79
2023/04/18 04:26:26;;;;;;;14.30;7.78;;;;;;;-144.85;100.00;61331.59;5031231;28;31062;-79
2023/04/18 04:29:02;;;;;;;14.05;7.95;;;;;;;-144.85;100.00;61331.59;5014448;28;30653;-79
2023/04/18 04:31:31;;;;;;;14.65;8.35;;;;;;;-144.85;100.00;61331.59;4998905;28;32711;-79
2023/04/18 04:33:59;;;;;;;14.10;8.15;;;;;;;-144.85;100.00;61331.59;4997280;28;31250;-79
2023/04/18 04:36:26;;;;;;;13.23;8.32;;;;;;;-144.85;100.00;61331.59;5014255;28;32196;-79
2023/04/18 04:38:56;;;;;;;13.55;8.90;;;;;;;-144.85;100.00;61331.59;5013988;28;30621;-78
2023/04/18 04:41:31;;;;;;;12.52;7.70;;;;;;;-144.85;100.00;61331.59;5013686;28;31611;-79
2023/04/18 04:44:00;;;;;;;13.57;8.00;;;;;;;-144.85;100.00;61331.59;5011676;28;31224;-79
2023/04/18 04:46:31;;;;;;;15.07;8.20;;;;;;;-144.85;100.00;61331.59;5017105;28;32649;-79
2023/04/18 04:49:00;;;;;;;14.48;7.78;;;;;;;-144.85;100.00;61331.59;5029040;28;30773;-79
2023/04/18 04:51:28;;;;;;;12.90;7.35;;;;;;;-144.85;100.00;61331.59;5015806;28;31204;-79
2023/04/18 04:53:57;;;;;;;16.25;8.27;;;;;;;-144.85;100.00;61331.59;5031963;28;20680;-80
2023/04/18 04:56:24;;;;;;;13.82;8.40;;;;;;;-144.85;100.00;61331.59;5015838;28;30781;-80
2023/04/18 04:58:52;;;;;;;14.43;7.88;;;;;;;-144.85;100.00;61331.59;5023181;28;30568;-79
2023/04/18 05:01:29;;;;;;;12.93;7.40;;;;;;;-144.85;100.00;61331.59;5012749;28;31634;-79
2023/04/18 05:03:57;;;;;;;15.68;8.27;;;;;;;-144.85;100.00;61331.59;5014474;28;30907;-79
2023/04/18 05:06:25;;;;;;;15.82;8.77;;;;;;;-144.85;100.00;61331.59;5032859;28;32484;-79
2023/04/18 05:08:52;;;;;;;16.73;8.20;;;;;;;-144.85;100.00;61331.59;5016054;28;31562;-79
2023/04/18 05:11:19;;;;;;;15.43;8.00;;;;;;;-144.85;100.00;61331.59;5031136;28;32579;-79
2023/04/18 05:13:47;;;;;;;11.77;8.00;;;;;;;-144.85;100.00;61331.59;5014123;28;31280;-80
2023/04/18 05:16:14;;;;;;;14.80;8.20;;;;;;;-144.85;100.00;61331.59;5016138;28;31511;-79
2023/04/18 05:18:41;;;;;;;13.57;8.30;;;;;;;-144.85;100.00;61331.59;5023745;28;31686;-79
2023/04/18 05:21:08;;;;;;;13.70;8.30;;;;;;;-144.85;100.00;61331.59;5023508;28;31125;-79
2023/04/18 05:23:35;;;;;;;13.68;8.48;;;;;;;-144.85;100.00;61331.59;5023125;28;31171;-79
2023/04/18 05:26:04;;;;;;;12.80;8.32;;;;;;;-144.85;100.00;61331.59;5014213;28;31763;-79
2023/04/18 05:28:31;;;;;;;13.73;8.45;;;;;;;-144.85;100.00;61331.59;5017184;28;31925;-79
2023/04/18 05:31:01;;;;;;;13.35;8.35;;;;;;;-144.85;100.00;61331.59;5007337;28;31746;-82
2023/04/18 05:33:30;;;;;;;18.85;8.88;;;;;;;-144.85;100.00;61331.59;5043329;28;33131;-79
2023/04/18 05:35:57;;;;;;;14.52;8.60;;;;;;;-144.85;100.00;61331.59;5028252;28;31074;-79
2023/04/18 05:38:25;;;;;;;12.60;7.93;;;;;;;-144.85;100.00;61331.59;5019697;28;31566;-79
2023/04/18 05:40:54;;;;;;;13.80;8.20;;;;;;;-144.85;100.00;61331.59;5000600;28;32356;-79
2023/04/18 05:43:22;;;;;;;13.88;8.07;;;;;;;-144.85;100.00;61331.59;5015969;28;31873;-79
2023/04/18 05:45:51;;;;;;;12.57;8.00;;;;;;;-144.85;100.00;61331.59;5014410;28;31663;-79
2023/04/18 05:48:19;;;;;;;17.65;8.63;;;;;;;-144.85;100.00;61331.59;5015451;28;30243;-80
2023/04/18 05:50:46;;;;;;;12.95;8.45;;;;;;;-144.85;100.00;61331.59;4997051;28;31241;-79
2023/04/18 05:53:13;;;;;;;13.23;8.13;;;;;;;-144.85;100.00;61331.59;5031539;28;31014;-79
2023/04/18 05:55:40;;;;;;;13.57;8.45;;;;;;;-144.85;100.00;61331.59;5029542;28;32947;-79
2023/04/18 05:58:08;;;;;;;14.90;8.15;;;;;;;-144.85;100.00;61331.59;5014702;28;31018;-79
2023/04/18 06:00:35;;;;;;;14.93;8.43;;;;;;;-144.85;100.00;61331.59;5014274;28;32547;-79
2023/04/18 06:03:02;;;;;;;14.80;8.13;;;;;;;-144.85;100.00;61331.59;4996353;28;31162;-79
2023/04/18 06:05:29;;;;;;;13.82;7.47;;;;;;;-144.85;100.00;61331.59;4995856;28;30797;-79
2023/04/18 06:07:57;;;;;;;12.65;7.68;;;;;;;-144.85;100.00;61331.59;5029425;28;32556;-79
2023/04/18 06:10:24;;;;;;;12.57;7.57;;;;;;;-144.85;100.00;61331.59;5014120;28;31148;-79
2023/04/18 06:12:51;;;;;;;14.38;8.20;;;;;;;-144.85;100.00;61331.59;5013230;28;30803;-79
2023/04/18 06:15:18;;;;;;;14.80;7.10;;;;;;;-144.85;100.00;61331.59;5013960;28;31439;-78
2023/04/18 06:17:46;;;;;;;11.10;7.63;;;;;;;-144.85;100.00;61331.59;5030975;28;30695;-79
2023/04/18 06:20:13;;;;;;;13.93;7.68;;;;;;;-144.85;100.00;61331.59;5016523;28;31632;-79
2023/04/18 06:22:40;;;;;;;12.48;7.38;;;;;;;-144.85;100.00;61331.59;5019304;28;32646;-79
2023/04/18 06:25:08;;;;;;;14.55;7.55;;;;;;;-144.85;100.00;61331.59;5024429;28;31461;-80
2023/04/18 06:27:36;;;;;;;13.13;7.75;;;;;;;-144.85;100.00;61331.59;5026042;28;32508;-79
2023/04/18 06:30:04;;;;;;;11.65;7.35;;;;;;;-144.85;100.00;61331.59;5027471;28;32693;-79
2023/04/18 06:32:32;;;;;;;15.10;7.35;;;;;;;-144.85;100.00;61331.59;5037754;28;31232;-80
2023/04/18 06:34:59;;;;;;;12.15;7.30;;;;;;;-144.85;100.00;61331.59;5019939;28;32021;-80
2023/04/18 06:37:26;;;;;;;13.10;8.32;;;;;;;-144.85;100.00;61331.59;5033962;28;31497;-79
2023/04/18 06:39:54;;;;;;;11.30;7.38;;;;;;;-144.85;100.00;61331.59;5026260;28;31263;-80
2023/04/18 06:42:21;;;;;;;13.93;7.93;;;;;;;-144.85;100.00;61331.59;5051968;28;32763;-79
2023/04/18 06:44:49;;;;;;;13.15;7.72;;;;;;;-144.85;100.00;61331.59;5038210;28;31928;-80
2023/04/18 06:47:16;;;;;;;14.65;7.90;;;;;;;-144.85;100.00;61331.59;5036678;28;32046;-79
2023/04/18 06:49:43;;;;;;;16.88;8.85;;;;;;;-144.85;100.00;61331.59;5046310;28;32060;-79
2023/04/18 06:52:11;;;;;;;14.43;8.00;;;;;;;-144.85;100.00;61331.59;5023777;28;34410;-80
2023/04/18 06:54:38;;;;;;;11.13;7.95;;;;;;;-144.85;100.00;61331.59;5023956;28;31278;-79
2023/04/18 06:57:05;;;;;;;12.45;7.90;;;;;;;-144.85;100.00;61331.59;5021970;28;31596;-80
2023/04/18 06:59:32;;;;;;;13.10;7.72;;;;;;;-144.85;100.00;61331.59;5041369;27;31569;-80
2023/04/18 07:01:59;;;;;;;10.85;7.00;;;;;;;-144.85;100.00;61331.59;5060036;28;31071;-79
2023/04/18 07:04:27;;;;;;;11.27;7.03;;;;;;;-144.85;100.00;61331.59;5026910;28;31883;-79
2023/04/18 07:06:54;;;;;;;13.75;7.28;;;;;;;-144.85;100.00;61331.59;5030495;28;30712;-80
2023/04/18 07:09:21;;;;;;;14.68;6.30;;;;;;;-144.85;100.00;61331.59;5044729;27;31762;-81
2023/04/18 07:11:50;;;;;;;12.70;7.13;;;;;;;-144.85;100.00;61331.59;5028092;28;32802;-80
2023/04/18 07:14:32;;;;;;;10.95;7.68;;;;;;;-144.85;100.00;61331.59;5025664;28;31498;-81
2023/04/18 07:17:00;;;;;;;12.20;7.10;;;;;;;-144.85;100.00;61331.59;5036506;28;33172;-80
2023/04/18 07:19:28;;;;;;;9.73;6.40;;;;;;;-144.85;100.00;61331.59;5040608;28;34102;-82
2023/04/18 07:21:55;;;;;;;10.77;6.93;;;;;;;-144.85;100.00;61331.59;5043002;28;33298;-81
2023/04/18 07:24:23;;;;;;;10.27;7.00;;;;;;;-144.85;100.00;61331.59;5041314;28;33312;-83
2023/04/18 07:26:50;;;;;;;9.75;6.72;;;;;;;-144.85;100.00;61331.59;5041958;28;33139;-83
2023/04/18 07:29:21;;;;;;;9.18;6.05;;;;;;;-144.85;100.00;61331.59;5092333;22;33018;-70
2023/04/18 07:31:48;;;;;;;13.38;6.68;;;;;;;-144.85;100.00;61331.59;5077655;28;32161;-71
2023/04/18 07:34:16;;;;;;;10.95;6.45;;;;;;;-144.85;100.00;61331.59;5087762;28;32175;-71
2023/04/18 07:36:44;;;;;;;10.27;6.40;;;;;;;-144.85;100.00;61331.59;5083101;28;33192;-70
2023/04/18 07:39:11;;;;;;;10.90;6.63;;;;;;;-144.85;100.00;61331.59;5085526;28;33480;-71
2023/04/18 07:41:38;;;;;;;10.95;5.88;;;;;;;-144.85;100.00;61331.59;5079546;28;31397;-70
2023/04/18 07:44:05;;;;;;;10.70;5.03;;;;;;;-144.85;100.00;61331.59;5078459;28;33283;-71
2023/04/18 07:46:33;;;;;;;8.77;5.30;;;;;;;-144.85;100.00;61331.59;5089005;28;31677;-71
2023/04/18 07:49:01;;;;;;;7.82;5.03;;;;;;;-144.85;100.00;61331.59;5088262;28;32653;-70
2023/04/18 07:51:31;;;;;;;8.18;5.13;;;;;;;-144.85;100.00;61331.59;5090621;28;31959;-71
2023/04/18 07:53:58;;;;;;;9.68;5.75;;;;;;;-144.85;100.00;61331.59;5081823;28;30389;-71
2023/04/18 07:56:26;;;;;;;9.20;4.88;;;;;;;-144.85;100.00;61331.59;5086484;28;30594;-70
2023/04/18 07:58:54;;;;;;;8.13;4.93;;;;;;;-144.85;100.00;61331.59;5095860;28;31281;-70
2023/04/18 08:01:23;;;;;;;9.60;4.43;;;;;;;-144.85;100.00;61331.59;5083652;28;32092;-70
2023/04/18 08:03:52;;;;;;;8.13;4.93;;;;;;;-144.85;100.00;61331.59;5081933;28;31969;-70
2023/04/18 08:06:20;;;;;;;8.20;4.50;;;;;;;-144.85;100.00;61331.59;5092096;28;31332;-70
2023/04/18 08:08:47;;;;;;;8.45;5.15;;;;;;;-144.85;100.00;61331.59;5084630;28;32490;-71
2023/04/18 08:11:14;;;;;;;8.45;5.10;;;;;;;-144.85;100.00;61331.59;5086809;28;32013;-70
2023/04/18 08:13:41;;;;;;;8.57;4.38;;;;;;;-144.85;100.00;61331.59;5091092;28;31782;-70
2023/04/18 08:16:09;;;;;;;7.93;4.85;;;;;;;-144.85;100.00;61331.59;5078491;28;30414;-70
2023/04/18 08:18:36;;;;;;;7.45;4.85;;;;;;;-144.85;100.00;61331.59;5090973;28;32428;-70
2023/04/18 08:21:04;;;;;;;11.13;5.45;;;;;;;-144.85;100.00;61331.59;5093913;28;31798;-70
2023/04/18 08:23:31;;;;;;;10.02;6.38;;;;;;;-144.85;100.00;61331.59;5093012;28;31976;-71
2023/04/18 08:25:58;;;;;;;10.55;6.47;;;;;;;-144.85;100.00;61331.59;5112762;22;32593;-80
2023/04/18 08:28:26;;;;;;;9.18;6.25;;;;;;;-144.85;100.00;61331.59;5101240;28;32431;-81
2023/04/18 08:30:55;;;;;;;10.10;6.63;;;;;;;-144.85;100.00;61331.59;5093590;28;32529;-81
2023/04/18 08:33:23;;;;;;;9.00;6.30;;;;;;;-144.85;100.00;61331.59;5098847;28;31634;-83
2023/04/18 08:35:50;;;;;;;10.20;5.97;;;;;;;-144.85;100.00;61331.59;5089294;28;30891;-81
2023/04/18 08:38:18;;;;;;;8.48;5.75;;;;;;;-144.85;100.00;61331.59;5094975;28;31493;-81
2023/04/18 08:40:46;;;;;;;10.10;5.82;;;;;;;-144.85;100.00;61331.59;5079729;28;30869;-82
2023/04/18 08:43:14;;;;;;;8.13;5.50;;;;;;;-144.85;100.00;61331.59;5093697;28;33120;-81
2023/04/18 08:45:42;;;;;;;9.50;5.65;;;;;;;-144.85;100.00;61331.59;5100277;28;31411;-83
2023/04/18 08:48:12;;;;;;;7.97;6.05;;;;;;;-144.85;100.00;61331.59;5089467;28;31538;-82
2023/04/18 08:50:40;;;;;;;9.15;5.50;;;;;;;-144.85;100.00;61331.59;5071522;28;32977;-81
2023/04/18 08:53:07;;;;;;;6.93;5.25;;;;;;;-144.85;100.00;61331.59;5081478;28;32020;-81
2023/04/18 08:55:34;;;;;;;8.82;6.05;;;;;;;-144.85;100.00;61331.59;5091131;28;32138;-82
2023/04/18 08:58:05;;;;;;;9.32;6.32;;;;;;;-144.85;100.00;61331.59;5112477;27;34840;-83
2023/04/18 09:00:32;;;;;;;10.07;5.65;;;;;;;-144.85;100.00;61331.59;5080697;28;32190;-84
2023/04/18 09:03:02;;;;;;;5.57;4.50;;;;;;;-144.85;100.00;61331.59;5097680;28;32480;-84
2023/04/18 09:05:30;;;;;;;6.82;5.20;;;;;;;-144.85;100.00;61331.59;5097605;28;32177;-82
2023/04/18 09:07:57;;;;;;;7.88;5.30;;;;;;;-144.85;100.00;61331.59;5097401;28;32331;-81
2023/04/18 09:10:27;;;;;;;7.45;5.80;;;;;;;-144.85;100.00;61331.59;5085589;28;34713;-82
2023/04/18 09:12:56;;;;;;;8.70;5.72;;;;;;;-144.85;100.00;61331.59;5093623;28;32505;-81
2023/04/18 09:15:28;;;;;;;7.22;5.85;;;;;;;-144.85;100.00;61331.59;5097645;28;31627;-82
2023/04/18 09:17:57;;;;;;;7.00;6.07;;;;;;;-144.85;100.00;61331.59;5065866;28;32681;-83
2023/04/18 09:20:39;;;;;;;7.32;5.70;;;;;;;-144.85;100.00;61331.59;5092092;28;32120;-84
2023/04/18 09:23:09;;;;;;;9.85;5.53;;;;;;;-144.85;100.00;61331.59;5082212;28;30572;-82
2023/04/18 09:25:40;;;;;;;7.50;5.35;;;;;;;-144.85;100.00;61331.59;5083296;28;32180;-83
2023/04/18 09:28:29;;;;;;;8.40;5.28;;;;;;;-144.85;100.00;61331.59;5095906;28;33623;-82
2023/04/18 09:31:14;;;;;;;7.97;5.45;;;;;;;-144.85;100.00;61331.59;5083972;28;32369;-82
2023/04/18 09:33:53;;;;;;;7.47;5.38;;;;;;;-144.85;100.00;61331.59;5097445;28;32178;-82
2023/04/18 09:36:29;;;;;;;8.60;5.13;;;;;;;-144.85;100.00;61331.59;5095837;28;31985;-82
2023/04/18 09:38:57;;;;;;;7.25;5.20;;;;;;;-144.85;100.00;61331.59;5112037;27;32864;-81
2023/04/18 09:41:24;;;;;;;7.10;4.85;;;;;;;-144.85;100.00;61331.59;5110583;27;31340;-82
2023/04/18 09:44:09;;;;;;;8.07;5.57;;;;;;;-144.85;100.00;61331.59;5114313;27;31275;-82
2023/04/18 09:46:41;;;;;;;7.60;5.60;;;;;;;-144.85;100.00;61331.59;5104774;27;30143;-82
2023/04/18 09:49:12;;;;;;;6.80;5.45;;;;;;;-144.85;100.00;61331.59;5094416;28;32483;-83
2023/04/18 09:51:42;;;;;;;8.02;6.03;;;;;;;-144.85;100.00;61331.59;5063862;28;33103;-81
2023/04/18 09:54:13;;;;;;;10.63;5.85;;;;;;;-144.85;100.00;61331.59;5078618;28;32329;-81
2023/04/18 09:56:45;;;;;;;7.10;5.10;;;;;;;-144.85;100.00;61331.59;5077842;28;30817;-82
2023/04/18 09:59:20;;;;;;;6.75;4.97;;;;;;;-144.85;100.00;61331.59;5087468;28;32972;-84
2023/04/18 10:01:48;;;;;;;8.65;5.75;;;;;;;-144.85;100.00;61331.59;5102240;28;31205;-81
2023/04/18 10:04:16;;;;;;;7.75;5.57;;;;;;;-144.85;100.00;61331.59;5100342;28;31658;-81
2023/04/18 10:06:45;;;;;;;6.53;5.50;;;;;;;-144.85;100.00;61331.59;5086478;28;32191;-78
2023/04/18 10:09:13;;;;;;;7.40;5.28;;;;;;;-144.85;100.00;61331.59;5104725;28;32683;-81
2023/04/18 10:11:41;;;;;;;7.70;5.70;;;;;;;-144.85;100.00;61331.59;5102967;28;33258;-82
2023/04/18 10:14:11;;;;;;;8.93;5.72;;;;;;;-144.85;100.00;61331.59;5080407;28;30642;-84
2023/04/18 10:16:40;;;;;;;10.20;5.70;;;;;;;-144.85;100.00;61331.59;5096660;28;33227;-79
2023/04/18 10:19:25;;;;;;;11.70;5.55;;;;;;;-144.85;100.00;61331.59;5106066;28;32847;-79
2023/04/18 10:21:57;;;;;;;7.97;5.50;;;;;;;-144.85;100.00;61331.59;5090565;28;32458;-80
2023/04/18 10:24:52;;;;;;;8.45;5.63;;;;;;;-144.85;100.00;61331.59;5109332;28;31787;-81
2023/04/18 10:27:48;;;;;;;8.40;5.55;;;;;;;-144.85;100.00;61331.59;5118489;27;32369;-82
2023/04/18 10:30:16;;;;;;;6.65;5.38;;;;;;;-144.85;100.00;61331.59;5115562;27;31447;-80
2023/04/18 10:32:46;;;;;;;7.47;5.10;;;;;;;-144.85;100.00;61331.59;5117839;27;32328;-82
2023/04/18 10:35:13;;;;;;;8.35;5.22;;;;;;;-144.85;100.00;61331.59;5103810;28;31057;-80
2023/04/18 10:37:50;;;;;;;7.43;5.03;;;;;;;-144.85;100.00;61331.59;5107799;27;31668;-81
2023/04/18 10:40:34;;;;;;;8.40;5.18;;;;;;;-144.85;100.00;61331.59;5086163;28;33346;-80
2023/04/18 10:43:01;;;;;;;8.40;5.30;;;;;;;-144.85;100.00;61331.59;5105012;28;31110;-78
2023/04/18 10:45:31;;;;;;;5.90;4.85;;;;;;;-144.85;100.00;61331.59;5115322;28;31802;-78
2023/04/18 10:48:20;;;;;;;7.75;5.40;;;;;;;-144.85;100.00;61331.59;5109200;28;31324;-79
2023/04/18 10:51:17;;;;;;;7.97;5.57;;;;;;;-144.85;100.00;61331.59;5107064;28;32943;-79
2023/04/18 10:53:51;;;;;;;8.60;5.95;;;;;;;-144.85;100.00;61331.59;5077277;28;33299;-80
2023/04/18 10:56:20;;;;;;;8.97;5.47;;;;;;;-144.85;100.00;61331.59;5102014;28;32396;-79
2023/04/18 10:58:51;;;;;;;7.30;5.43;;;;;;;-144.85;100.00;61331.59;5090208;27;30246;-83
2023/04/18 11:01:29;;;;;;;8.75;5.75;;;;;;;-144.85;100.00;61331.59;5110328;28;32200;-83
2023/04/18 11:03:59;;;;;;;7.72;5.47;;;;;;;-144.85;100.00;61331.59;5100376;28;31349;-83
2023/04/18 11:06:27;;;;;;;8.77;5.65;;;;;;;-144.85;100.00;61331.59;5089934;28;30568;-81
2023/04/18 11:09:09;;;;;;;8.35;6.28;;;;;;;-144.85;100.00;61331.59;5098441;28;30405;-84
2023/04/18 11:11:36;;;;;;;9.82;6.70;;;;;;;-144.85;100.00;61331.59;5111892;28;33711;-80
2023/04/18 11:14:03;;;;;;;9.85;6.35;;;;;;;-144.85;100.00;61331.59;5099138;28;32760;-81